Time;durP1;ratioP1;P1;durP2;ratioP2;P2;SDS_P1;SDS_P2;PMS_P1;PMS_P2;Temp;Humidity;BMP_temperature;BMP_pressure;BME280_temperature;BME280_humidity;BME280_pressure;Samples;Min_cycle;Max_cycle;Signal;HPM_P1;HPM_P2
2023/07/30 00:00:33;;;;;;;0.98;0.52;;;16.80;99.90;;;;;;5038008;28;20182;-76
2023/07/30 00:03:00;;;;;;;1.70;0.68;;;16.80;99.90;;;;;;5044585;28;20472;-76
2023/07/30 00:05:27;;;;;;;1.17;0.60;;;16.80;99.90;;;;;;5057619;28;20099;-76
2023/07/30 00:07:54;;;;;;;1.77;0.85;;;16.80;99.90;;;;;;5041414;28;20068;-75
2023/07/30 00:10:21;;;;;;;1.13;0.60;;;16.80;99.90;;;;;;5039748;28;20077;-75
2023/07/30 00:12:48;;;;;;;1.00;0.50;;;16.70;99.90;;;;;;5041758;28;20088;-75
2023/07/30 00:15:15;;;;;;;0.88;0.60;;;16.70;1.00;;;;;;5019847;28;20533;-76
2023/07/30 00:17:42;;;;;;;1.05;0.50;;;16.70;1.00;;;;;;5058183;28;20045;-75
2023/07/30 00:20:09;;;;;;;0.95;0.52;;;16.60;1.00;;;;;;5056212;28;20103;-75
2023/07/30 00:22:35;;;;;;;0.68;0.50;;;16.60;1.00;;;;;;5057641;28;20044;-75
2023/07/30 00:25:03;;;;;;;0.93;0.45;;;16.60;1.00;;;;;;5057160;28;20048;-74
2023/07/30 00:27:30;;;;;;;0.80;0.47;;;16.60;15.60;;;;;;5043362;28;20259;-75
2023/07/30 00:29:57;;;;;;;0.95;0.50;;;16.60;1.00;;;;;;5050568;28;20063;-75
2023/07/30 00:32:23;;;;;;;0.95;0.50;;;16.70;5.80;;;;;;5045364;28;20048;-75
2023/07/30 00:34:50;;;;;;;0.98;0.68;;;16.70;24.60;;;;;;5025249;28;20175;-75
2023/07/30 00:37:17;;;;;;;1.27;0.80;;;16.70;21.40;;;;;;5040974;28;20147;-75
2023/07/30 00:39:44;;;;;;;0.85;0.52;;;16.80;13.50;;;;;;5026124;28;20056;-75
2023/07/30 00:42:11;;;;;;;1.73;0.88;;;16.80;24.10;;;;;;5025039;28;20073;-75
2023/07/30 00:44:38;;;;;;;1.45;0.70;;;16.80;43.30;;;;;;5059013;28;20516;-75
2023/07/30 00:47:05;;;;;;;0.73;0.60;;;16.90;69.70;;;;;;5035875;28;20048;-75
2023/07/30 00:49:32;;;;;;;0.70;0.47;;;16.80;50.10;;;;;;5025247;28;20099;-75
2023/07/30 00:51:58;;;;;;;1.65;0.65;;;16.90;66.70;;;;;;5039154;28;20584;-75
2023/07/30 00:54:25;;;;;;;0.93;0.80;;;16.90;99.90;;;;;;5056023;28;20087;-75
2023/07/30 00:56:52;;;;;;;0.70;0.40;;;16.90;99.90;;;;;;5044609;28;20492;-75
2023/07/30 00:59:20;;;;;;;2.10;0.68;;;16.90;99.90;;;;;;5061282;28;20064;-75
2023/07/30 01:01:47;;;;;;;1.27;0.50;;;16.80;99.90;;;;;;5060912;28;20048;-75
2023/07/30 01:04:17;;;;;;;1.50;0.60;;;16.80;99.90;;;;;;5042344;28;20059;-76
2023/07/30 01:06:44;;;;;;;1.90;0.60;;;16.80;99.90;;;;;;5026635;28;20052;-76
2023/07/30 01:09:11;;;;;;;2.65;0.70;;;16.70;99.90;;;;;;5043670;28;20087;-76
2023/07/30 01:11:38;;;;;;;1.73;0.80;;;16.70;99.90;;;;;;5060783;28;20063;-75
2023/07/30 01:14:05;;;;;;;1.67;0.77;;;16.70;99.90;;;;;;5041702;28;20045;-76
2023/07/30 01:16:32;;;;;;;2.35;0.70;;;16.70;99.90;;;;;;5024469;28;20082;-76
2023/07/30 01:19:03;;;;;;;1.00;0.77;;;16.70;99.90;;;;;;5049381;28;20738;-76
2023/07/30 01:21:34;;;;;;;0.98;0.55;;;16.70;99.90;;;;;;5027036;28;20128;-76
2023/07/30 01:24:02;;;;;;;1.83;0.65;;;16.70;99.90;;;;;;5038984;28;20562;-76
2023/07/30 01:26:45;;;;;;;1.13;0.50;;;16.70;99.90;;;;;;5056587;28;20128;-75
2023/07/30 01:29:31;;;;;;;1.48;0.77;;;16.70;99.90;;;;;;5059660;28;20384;-75
2023/07/30 01:32:01;;;;;;;0.80;0.50;;;16.70;99.90;;;;;;5024288;28;20056;-76
2023/07/30 01:34:28;;;;;;;1.33;0.68;;;16.70;99.90;;;;;;5048585;28;20057;-75
2023/07/30 01:36:55;;;;;;;1.70;0.70;;;16.70;99.90;;;;;;5042718;28;20053;-76
2023/07/30 01:39:23;;;;;;;2.50;1.10;;;16.70;99.90;;;;;;5060991;28;20044;-76
2023/07/30 01:41:50;;;;;;;0.63;0.60;;;16.70;99.90;;;;;;5018987;28;20060;-76
2023/07/30 01:44:16;;;;;;;2.50;0.80;;;16.60;99.90;;;;;;5045270;28;20044;-76
2023/07/30 01:46:43;;;;;;;0.70;0.43;;;16.60;99.90;;;;;;5063419;28;20137;-76
2023/07/30 01:49:10;;;;;;;0.95;0.50;;;16.60;99.90;;;;;;5047215;28;20504;-76
2023/07/30 01:51:37;;;;;;;1.40;0.55;;;16.50;99.90;;;;;;5047384;28;20076;-76
2023/07/30 01:54:04;;;;;;;0.98;0.60;;;16.50;99.90;;;;;;5058665;28;20166;-76
2023/07/30 01:56:31;;;;;;;1.08;0.73;;;16.50;99.90;;;;;;5061672;28;20047;-76
2023/07/30 01:58:57;;;;;;;1.45;0.70;;;16.40;99.90;;;;;;5010987;28;20134;-76
2023/07/30 02:01:24;;;;;;;1.20;0.70;;;16.40;99.90;;;;;;5044271;28;20152;-76
2023/07/30 02:03:51;;;;;;;1.13;0.60;;;16.40;99.90;;;;;;5058869;28;20049;-76
2023/07/30 02:06:18;;;;;;;1.48;0.70;;;16.40;99.90;;;;;;5062582;28;20499;-76
2023/07/30 02:08:44;;;;;;;2.00;0.60;;;16.40;99.90;;;;;;5043327;28;20145;-76
2023/07/30 02:11:12;;;;;;;0.95;0.50;;;16.40;99.90;;;;;;5043759;28;20490;-76
2023/07/30 02:13:39;;;;;;;1.38;0.65;;;16.40;99.90;;;;;;5055630;28;20056;-76
2023/07/30 02:16:05;;;;;;;0.93;0.40;;;16.40;99.90;;;;;;5062601;28;20098;-75
2023/07/30 02:18:32;;;;;;;1.30;0.75;;;16.40;99.90;;;;;;5064533;28;20082;-75
2023/07/30 02:20:59;;;;;;;1.88;0.70;;;16.50;99.90;;;;;;5045686;28;20044;-76
2023/07/30 02:23:26;;;;;;;2.80;0.95;;;16.40;99.90;;;;;;5062441;28;20114;-75
2023/07/30 02:25:53;;;;;;;1.15;0.85;;;16.50;99.40;;;;;;5046479;28;20087;-75
2023/07/30 02:28:20;;;;;;;2.00;0.80;;;16.50;92.00;;;;;;5046140;28;20110;-76
2023/07/30 02:30:47;;;;;;;1.00;0.60;;;16.50;99.60;;;;;;5045806;28;20044;-75
2023/07/30 02:33:13;;;;;;;1.33;0.57;;;16.50;95.20;;;;;;5042140;28;20124;-76
2023/07/30 02:35:40;;;;;;;0.63;0.38;;;16.40;70.80;;;;;;5029220;28;20053;-75
2023/07/30 02:38:07;;;;;;;1.75;0.80;;;16.40;91.60;;;;;;5030695;28;20072;-75
2023/07/30 02:40:33;;;;;;;0.85;0.43;;;16.40;69.00;;;;;;5046055;28;20121;-76
2023/07/30 02:43:00;;;;;;;0.63;0.50;;;16.40;33.80;;;;;;5028466;28;20063;-76
2023/07/30 02:45:27;;;;;;;1.60;0.77;;;16.40;1.00;;;;;;5058209;28;20479;-76
2023/07/30 02:47:54;;;;;;;1.45;0.73;;;16.40;1.00;;;;;;5052782;28;20139;-76
2023/07/30 02:50:21;;;;;;;4.32;0.85;;;16.50;1.00;;;;;;5059345;28;20071;-76
2023/07/30 02:52:48;;;;;;;1.35;0.80;;;16.50;1.00;;;;;;5054608;28;20037;-76
2023/07/30 02:55:16;;;;;;;2.17;0.90;;;16.50;1.00;;;;;;5051300;28;20056;-76
2023/07/30 02:57:42;;;;;;;1.27;0.73;;;16.50;1.00;;;;;;5047862;28;20087;-76
2023/07/30 03:00:10;;;;;;;0.70;0.47;;;16.50;1.00;;;;;;5045805;28;20077;-76
2023/07/30 03:02:37;;;;;;;2.30;0.70;;;16.50;1.00;;;;;;5050406;28;20508;-76
2023/07/30 03:05:04;;;;;;;1.50;0.93;;;16.50;1.00;;;;;;5018405;28;20067;-76
2023/07/30 03:07:31;;;;;;;1.13;0.65;;;16.50;1.00;;;;;;5027099;28;20613;-76
2023/07/30 03:09:58;;;;;;;2.33;0.52;;;16.50;1.00;;;;;;5052856;28;20060;-75
2023/07/30 03:12:24;;;;;;;1.48;0.70;;;16.50;1.00;;;;;;5031799;28;20443;-75
2023/07/30 03:14:51;;;;;;;1.90;0.70;;;16.50;1.00;;;;;;5046670;28;20052;-76
2023/07/30 03:17:18;;;;;;;1.15;0.68;;;16.60;1.00;;;;;;5062007;28;20045;-76
2023/07/30 03:19:46;;;;;;;1.50;0.68;;;16.60;99.90;;;;;;5059067;28;20136;-76
2023/07/30 03:22:13;;;;;;;1.27;0.77;;;16.50;1.00;;;;;;5063492;28;20083;-76
2023/07/30 03:24:39;;;;;;;1.73;0.88;;;16.50;1.00;;;;;;5017456;28;20429;-76
2023/07/30 03:27:06;;;;;;;2.20;0.77;;;16.60;1.00;;;;;;5062269;28;20140;-75
2023/07/30 03:29:33;;;;;;;1.73;0.52;;;16.50;1.00;;;;;;5039511;28;20133;-76
2023/07/30 03:32:00;;;;;;;1.83;0.77;;;16.50;1.00;;;;;;5010907;28;20049;-76
2023/07/30 03:34:26;;;;;;;1.52;0.55;;;16.50;1.00;;;;;;5045706;28;20555;-75
2023/07/30 03:36:53;;;;;;;1.25;0.65;;;16.50;1.00;;;;;;5044141;28;20082;-77
2023/07/30 03:39:20;;;;;;;1.13;0.60;;;16.40;1.00;;;;;;5056283;28;20049;-76
2023/07/30 03:41:47;;;;;;;1.20;0.52;;;16.40;1.00;;;;;;5052044;28;20052;-76
2023/07/30 03:44:14;;;;;;;1.98;0.80;;;16.40;1.00;;;;;;5059176;28;20048;-76
2023/07/30 03:46:40;;;;;;;0.75;0.40;;;16.40;1.00;;;;;;5059845;28;20048;-76
2023/07/30 03:49:07;;;;;;;0.47;0.30;;;16.30;1.00;;;;;;5040345;28;20055;-76
2023/07/30 03:51:34;;;;;;;0.70;0.50;;;16.30;2.10;;;;;;5046458;28;20060;-76
2023/07/30 03:54:01;;;;;;;1.08;0.68;;;16.30;33.20;;;;;;5056625;28;20529;-76
2023/07/30 03:56:28;;;;;;;1.85;0.55;;;16.20;75.60;;;;;;5034366;28;20121;-76
2023/07/30 03:58:55;;;;;;;1.08;0.60;;;16.10;83.70;;;;;;5045296;28;20268;-76
2023/07/30 04:01:21;;;;;;;1.25;0.60;;;16.10;80.20;;;;;;5025834;28;20052;-76
2023/07/30 04:03:48;;;;;;;1.42;0.60;;;16.10;85.20;;;;;;5036091;28;20037;-77
2023/07/30 04:06:15;;;;;;;0.65;0.50;;;16.10;88.30;;;;;;5062200;28;20048;-76
2023/07/30 04:08:43;;;;;;;0.98;0.45;;;16.00;70.40;;;;;;5051220;28;20656;-76
2023/07/30 04:11:10;;;;;;;0.55;0.50;;;16.00;91.30;;;;;;5044314;28;20048;-77
2023/07/30 04:13:37;;;;;;;1.05;0.57;;;15.90;70.20;;;;;;5056108;28;20047;-76
2023/07/30 04:16:04;;;;;;;1.40;0.70;;;15.90;98.70;;;;;;5063862;28;20048;-76
2023/07/30 04:18:31;;;;;;;0.70;0.47;;;15.90;99.90;;;;;;5057742;28;20044;-76
2023/07/30 04:20:58;;;;;;;0.73;0.50;;;15.80;86.50;;;;;;5063929;28;20053;-76
2023/07/30 04:23:25;;;;;;;0.65;0.50;;;15.80;94.90;;;;;;5061176;28;20151;-77
2023/07/30 04:25:52;;;;;;;0.93;0.63;;;15.80;99.90;;;;;;5047246;28;20121;-76
2023/07/30 04:28:19;;;;;;;1.17;0.60;;;15.70;99.90;;;;;;5052606;28;20056;-76
2023/07/30 04:30:47;;;;;;;0.73;0.47;;;15.70;99.90;;;;;;5045232;28;20341;-76
2023/07/30 04:33:17;;;;;;;1.98;0.60;;;15.70;99.90;;;;;;5060820;28;20049;-77
2023/07/30 04:35:44;;;;;;;0.50;0.50;;;15.70;99.90;;;;;;5064837;28;20148;-76
2023/07/30 04:38:11;;;;;;;0.80;0.50;;;15.70;99.90;;;;;;5038271;28;20048;-76
2023/07/30 04:40:38;;;;;;;0.90;0.43;;;15.60;99.90;;;;;;5027732;28;20511;-76
2023/07/30 04:43:05;;;;;;;0.82;0.60;;;15.60;99.90;;;;;;5054709;28;20496;-76
2023/07/30 04:45:32;;;;;;;0.98;0.55;;;15.60;99.90;;;;;;5035881;28;20372;-76
2023/07/30 04:47:59;;;;;;;0.90;0.40;;;15.60;99.90;;;;;;5044663;28;20053;-77
2023/07/30 04:50:26;;;;;;;0.80;0.40;;;15.60;99.90;;;;;;5057919;28;20132;-76
2023/07/30 04:52:52;;;;;;;0.90;0.50;;;15.50;1.00;;;;;;5041828;28;20503;-76
2023/07/30 04:55:19;;;;;;;1.17;0.43;;;15.50;1.00;;;;;;5046603;28;20767;-76
2023/07/30 04:57:46;;;;;;;1.08;0.45;;;15.50;1.00;;;;;;5054489;28;20494;-76
2023/07/30 05:00:13;;;;;;;0.38;0.30;;;15.50;1.00;;;;;;5039021;28;20126;-76
2023/07/30 05:02:40;;;;;;;0.70;0.40;;;15.50;51.90;;;;;;5048726;28;20098;-75
2023/07/30 05:05:07;;;;;;;1.05;0.50;;;15.50;99.90;;;;;;5046688;28;20114;-76
2023/07/30 05:07:33;;;;;;;1.35;0.70;;;15.40;99.90;;;;;;5046110;28;20052;-75
2023/07/30 05:10:00;;;;;;;1.65;0.63;;;15.40;99.90;;;;;;5049110;28;20468;-76
2023/07/30 05:12:27;;;;;;;1.08;0.57;;;15.40;99.90;;;;;;5050816;28;20401;-75
2023/07/30 05:14:53;;;;;;;0.88;0.55;;;15.50;99.90;;;;;;5051204;28;20044;-75
2023/07/30 05:17:21;;;;;;;1.33;0.63;;;15.50;99.90;;;;;;5043900;28;20150;-77
2023/07/30 05:19:47;;;;;;;2.00;0.77;;;15.50;99.90;;;;;;5045045;28;20567;-77
2023/07/30 05:22:14;;;;;;;1.70;0.60;;;15.50;99.90;;;;;;5044523;28;20044;-77
2023/07/30 05:24:41;;;;;;;1.17;0.50;;;15.50;99.90;;;;;;5051600;28;20534;-77
2023/07/30 05:27:08;;;;;;;1.02;0.50;;;15.50;99.90;;;;;;5046201;28;20263;-77
2023/07/30 05:29:35;;;;;;;0.88;0.50;;;15.50;99.90;;;;;;5041696;28;20049;-77
2023/07/30 05:32:01;;;;;;;1.02;0.57;;;15.60;99.90;;;;;;5030555;28;20084;-77
2023/07/30 05:34:28;;;;;;;2.78;0.50;;;15.60;99.90;;;;;;5053373;28;20120;-77
2023/07/30 05:36:55;;;;;;;1.05;0.50;;;15.60;99.90;;;;;;5035035;28;20110;-77
2023/07/30 05:39:22;;;;;;;1.30;0.60;;;15.70;99.90;;;;;;5038075;28;20097;-76
2023/07/30 05:41:48;;;;;;;1.55;0.70;;;15.80;99.90;;;;;;5059619;28;20060;-76
2023/07/30 05:44:15;;;;;;;2.03;0.70;;;15.80;99.90;;;;;;5042805;28;20104;-75
2023/07/30 05:46:42;;;;;;;1.63;0.90;;;16.00;99.90;;;;;;5044767;28;20080;-75
2023/07/30 05:49:10;;;;;;;1.88;0.50;;;16.00;94.70;;;;;;5046306;28;20117;-75
2023/07/30 05:51:37;;;;;;;1.13;0.68;;;16.10;26.70;;;;;;5050014;28;20152;-75
2023/07/30 05:54:05;;;;;;;0.68;0.60;;;16.10;5.20;;;;;;5047017;28;20059;-76
2023/07/30 05:56:32;;;;;;;1.88;0.82;;;16.10;1.00;;;;;;5018341;28;20048;-76
2023/07/30 05:58:58;;;;;;;0.68;0.55;;;16.20;1.00;;;;;;5045581;28;20055;-75
2023/07/30 06:01:25;;;;;;;1.98;0.80;;;16.20;1.00;;;;;;5023409;28;20053;-75
2023/07/30 06:03:52;;;;;;;2.63;0.98;;;16.20;1.00;;;;;;5030914;28;20124;-76
2023/07/30 06:06:26;;;;;;;1.90;0.90;;;16.20;99.90;;;;;;5037495;28;20526;-75
2023/07/30 06:08:54;;;;;;;0.95;0.50;;;16.20;99.90;;;;;;5044876;28;20052;-75
2023/07/30 06:11:21;;;;;;;1.83;0.80;;;16.20;99.90;;;;;;5032903;28;20056;-75
2023/07/30 06:13:49;;;;;;;1.75;0.77;;;16.20;99.90;;;;;;5038790;28;20117;-76
2023/07/30 06:16:16;;;;;;;1.17;0.63;;;16.20;99.90;;;;;;5033472;28;20052;-75
2023/07/30 06:18:43;;;;;;;2.40;0.70;;;16.10;99.90;;;;;;5038450;28;20053;-75
2023/07/30 06:21:10;;;;;;;1.38;0.65;;;16.20;99.90;;;;;;5037417;28;20107;-75
2023/07/30 06:23:37;;;;;;;1.52;0.90;;;16.30;99.90;;;;;;5043408;28;20755;-75
2023/07/30 06:26:04;;;;;;;1.70;0.80;;;16.50;99.90;;;;;;5044510;28;20530;-75
2023/07/30 06:28:31;;;;;;;1.63;0.63;;;16.60;99.90;;;;;;5056067;28;20756;-75
2023/07/30 06:31:02;;;;;;;2.92;1.30;;;16.60;57.50;;;;;;5061287;28;20083;-76
2023/07/30 06:33:29;;;;;;;1.40;0.65;;;16.70;1.00;;;;;;5036636;28;20043;-76
2023/07/30 06:35:58;;;;;;;1.83;0.90;;;16.70;1.00;;;;;;5044073;28;20061;-74
2023/07/30 06:38:25;;;;;;;1.98;1.08;;;16.70;1.00;;;;;;5057619;28;20192;-75
2023/07/30 06:40:52;;;;;;;1.55;0.80;;;16.70;1.00;;;;;;5045699;28;20044;-75
2023/07/30 06:43:19;;;;;;;2.25;0.82;;;16.90;1.00;;;;;;5046497;28;20064;-74
2023/07/30 06:45:46;;;;;;;1.77;0.70;;;16.90;1.00;;;;;;5042194;28;20052;-80
2023/07/30 06:48:13;;;;;;;3.08;1.08;;;17.00;99.90;;;;;;5037211;28;20507;-80
2023/07/30 06:50:40;;;;;;;3.92;0.73;;;17.00;99.90;;;;;;5038515;28;20056;-79
2023/07/30 06:53:06;;;;;;;2.30;0.80;;;17.10;99.90;;;;;;5036557;28;20147;-79
2023/07/30 06:55:33;;;;;;;0.77;0.50;;;17.20;99.90;;;;;;5041290;28;20108;-78
2023/07/30 06:58:00;;;;;;;1.85;0.93;;;17.20;99.90;;;;;;5034473;28;20056;-80
2023/07/30 07:00:28;;;;;;;2.55;0.93;;;17.20;99.90;;;;;;5041904;28;20125;-79
2023/07/30 07:02:55;;;;;;;1.60;0.93;;;17.20;99.90;;;;;;5040283;28;20125;-79
2023/07/30 07:05:22;;;;;;;1.05;0.50;;;17.30;99.90;;;;;;5039572;28;20045;-79
2023/07/30 07:07:48;;;;;;;1.38;0.60;;;17.30;99.90;;;;;;5040419;28;20057;-79
2023/07/30 07:10:15;;;;;;;2.05;1.00;;;17.30;99.90;;;;;;5033488;28;20057;-80
2023/07/30 07:12:42;;;;;;;1.58;1.02;;;17.30;99.90;;;;;;5040118;28;20094;-80
2023/07/30 07:15:09;;;;;;;1.77;0.98;;;17.40;99.90;;;;;;5046774;28;20044;-79
2023/07/30 07:17:36;;;;;;;1.33;0.80;;;17.50;99.90;;;;;;5041956;28;20048;-79
2023/07/30 07:20:04;;;;;;;2.40;1.20;;;17.60;99.90;;;;;;5033216;28;20079;-79
2023/07/30 07:22:31;;;;;;;2.42;1.00;;;17.60;99.90;;;;;;5041920;28;20063;-80
2023/07/30 07:24:59;;;;;;;1.98;0.80;;;17.40;99.90;;;;;;5028298;28;20110;-80
2023/07/30 07:27:26;;;;;;;1.80;0.90;;;17.40;99.90;;;;;;5046496;28;20145;-81
2023/07/30 07:29:53;;;;;;;1.27;0.70;;;17.30;99.90;;;;;;5042689;28;20060;-80
2023/07/30 07:32:20;;;;;;;3.90;1.10;;;17.40;99.90;;;;;;5032109;28;20064;-80
2023/07/30 07:34:48;;;;;;;3.22;1.10;;;17.30;99.90;;;;;;5036866;28;20045;-81
2023/07/30 07:37:16;;;;;;;1.25;0.82;;;17.20;99.90;;;;;;5043439;28;20060;-79
2023/07/30 07:39:43;;;;;;;1.10;0.80;;;17.30;99.90;;;;;;5042427;28;20128;-80
2023/07/30 07:42:10;;;;;;;1.20;0.52;;;17.40;99.90;;;;;;5056749;28;20053;-81
2023/07/30 07:44:37;;;;;;;1.33;0.68;;;17.40;99.90;;;;;;5039726;28;20059;-81
2023/07/30 07:47:04;;;;;;;1.77;0.70;;;17.40;99.90;;;;;;5051556;28;20064;-79
2023/07/30 07:49:30;;;;;;;1.65;0.90;;;17.40;99.90;;;;;;5045638;28;20628;-80
2023/07/30 07:51:57;;;;;;;3.47;1.00;;;17.40;99.90;;;;;;5044900;28;20060;-80
2023/07/30 07:54:24;;;;;;;1.70;0.88;;;17.50;99.90;;;;;;5056097;28;20084;-80
2023/07/30 07:56:51;;;;;;;2.17;1.17;;;17.50;99.90;;;;;;5041758;28;20657;-80
2023/07/30 07:59:17;;;;;;;1.48;0.80;;;17.50;99.90;;;;;;5052514;28;20134;-80
2023/07/30 08:01:44;;;;;;;2.05;0.90;;;17.50;99.90;;;;;;5037323;28;20145;-80
2023/07/30 08:04:11;;;;;;;2.28;0.73;;;17.60;99.90;;;;;;5043445;28;20041;-80
2023/07/30 08:06:38;;;;;;;2.50;1.05;;;17.60;99.90;;;;;;5038656;28;20057;-81
2023/07/30 08:09:05;;;;;;;1.70;0.75;;;17.70;99.90;;;;;;5047487;28;20098;-81
2023/07/30 08:11:31;;;;;;;1.40;0.70;;;17.80;94.50;;;;;;5047756;28;20045;-81
2023/07/30 08:13:58;;;;;;;2.40;0.93;;;17.90;79.20;;;;;;5051990;28;20048;-81
2023/07/30 08:16:25;;;;;;;1.10;0.60;;;18.00;77.60;;;;;;5059219;28;20080;-80
2023/07/30 08:18:52;;;;;;;1.70;0.82;;;18.10;69.60;;;;;;5048071;28;20076;-80
2023/07/30 08:21:20;;;;;;;1.30;0.80;;;18.20;55.20;;;;;;5042770;28;20460;-79
2023/07/30 08:23:47;;;;;;;1.48;0.70;;;18.30;56.80;;;;;;5048690;28;20056;-79
2023/07/30 08:26:13;;;;;;;1.48;0.63;;;18.50;50.70;;;;;;5041119;28;20106;-80
2023/07/30 08:28:40;;;;;;;1.48;0.70;;;18.70;49.10;;;;;;5047081;28;20372;-79
2023/07/30 08:31:07;;;;;;;1.77;0.65;;;18.80;46.30;;;;;;5057789;28;20040;-80
2023/07/30 08:33:34;;;;;;;1.85;0.80;;;19.00;42.50;;;;;;5055576;28;20057;-80
2023/07/30 08:36:01;;;;;;;0.88;0.70;;;19.00;36.60;;;;;;5035137;28;20827;-79
2023/07/30 08:38:28;;;;;;;1.38;0.50;;;19.00;32.40;;;;;;5043328;28;20546;-80
2023/07/30 08:40:54;;;;;;;1.42;0.80;;;19.00;31.20;;;;;;5046402;28;20081;-83
2023/07/30 08:43:21;;;;;;;0.70;0.50;;;19.10;28.10;;;;;;5044408;28;20159;-81
2023/07/30 08:45:48;;;;;;;1.25;0.70;;;19.30;24.00;;;;;;5041872;28;20049;-81
2023/07/30 08:48:15;;;;;;;1.50;0.80;;;19.40;21.00;;;;;;5045952;28;20442;-81
2023/07/30 08:50:42;;;;;;;1.17;0.60;;;19.40;17.60;;;;;;5041221;28;20411;-81
2023/07/30 08:53:09;;;;;;;1.50;0.85;;;19.40;16.80;;;;;;5043359;28;20063;-80
2023/07/30 08:55:36;;;;;;;1.88;0.80;;;19.40;16.30;;;;;;5028581;28;20056;-81
2023/07/30 08:58:04;;;;;;;1.25;0.75;;;19.40;17.10;;;;;;5060843;28;20060;-80
2023/07/30 09:00:33;;;;;;;1.95;0.93;;;19.30;16.40;;;;;;5056909;28;20423;-80
2023/07/30 09:03:00;;;;;;;1.63;0.88;;;19.30;16.00;;;;;;5030890;28;20048;-80
2023/07/30 09:05:29;;;;;;;1.40;0.80;;;19.40;15.90;;;;;;5059110;28;20056;-80
2023/07/30 09:07:57;;;;;;;1.38;0.82;;;19.60;17.10;;;;;;5061386;28;20074;-80
2023/07/30 09:10:24;;;;;;;1.38;0.70;;;19.80;18.40;;;;;;5062352;28;20052;-80
2023/07/30 09:13:00;;;;;;;1.80;0.80;;;20.00;17.10;;;;;;5062045;28;20080;-80
2023/07/30 09:15:37;;;;;;;1.73;0.90;;;20.00;16.30;;;;;;5053678;28;20506;-81
2023/07/30 09:18:05;;;;;;;1.27;0.80;;;20.10;14.00;;;;;;5042016;28;20057;-81
2023/07/30 09:20:39;;;;;;;1.55;0.80;;;20.00;11.80;;;;;;5055456;28;20044;-80
2023/07/30 09:23:09;;;;;;;2.15;0.80;;;20.00;11.10;;;;;;5054436;28;20492;-80
2023/07/30 09:25:37;;;;;;;1.27;0.82;;;20.00;9.70;;;;;;5040602;28;20095;-80
2023/07/30 09:28:05;;;;;;;1.38;0.70;;;19.90;8.60;;;;;;5008312;28;20053;-80
2023/07/30 09:30:33;;;;;;;1.95;0.90;;;19.90;7.90;;;;;;5037584;28;20071;-80
2023/07/30 09:33:00;;;;;;;1.67;0.80;;;19.90;9.90;;;;;;5051578;28;20503;-81
2023/07/30 09:35:27;;;;;;;1.08;0.70;;;20.00;6.90;;;;;;5057983;28;20049;-81
2023/07/30 09:38:02;;;;;;;2.00;0.80;;;20.10;9.60;;;;;;5061256;28;20129;-81
2023/07/30 09:40:34;;;;;;;1.90;1.00;;;20.20;7.30;;;;;;5054246;28;20052;-80
2023/07/30 09:43:02;;;;;;;3.22;1.20;;;20.20;5.80;;;;;;5017785;28;20045;-80
2023/07/30 09:45:37;;;;;;;2.30;1.10;;;20.10;3.20;;;;;;5041378;28;20356;-80
2023/07/30 09:48:05;;;;;;;1.10;0.75;;;20.10;5.30;;;;;;5059863;28;20486;-81
2023/07/30 09:50:36;;;;;;;1.88;1.05;;;20.10;2.80;;;;;;5046955;28;20105;-81
2023/07/30 09:53:03;;;;;;;1.98;1.10;;;20.10;3.50;;;;;;5046346;28;20110;-81
2023/07/30 09:55:30;;;;;;;1.67;1.17;;;20.30;5.30;;;;;;5032085;28;20040;-81
2023/07/30 09:57:57;;;;;;;1.58;0.90;;;20.50;5.30;;;;;;5048411;28;20056;-80
2023/07/30 10:00:24;;;;;;;2.10;0.80;;;20.80;6.40;;;;;;5061141;28;20047;-81
2023/07/30 10:02:52;;;;;;;1.60;0.93;;;21.00;7.20;;;;;;5054352;28;20076;-81
2023/07/30 10:05:19;;;;;;;0.80;0.57;;;21.30;9.50;;;;;;5043383;28;20695;-81
2023/07/30 10:07:58;;;;;;;2.35;1.00;;;21.40;15.50;;;;;;5025800;28;20044;-81
2023/07/30 10:10:24;;;;;;;2.47;1.20;;;21.30;5.10;;;;;;5042971;28;20053;-81
2023/07/30 10:12:51;;;;;;;1.20;0.60;;;21.40;14.60;;;;;;5023488;28;20110;-81
2023/07/30 10:15:23;;;;;;;1.73;0.98;;;21.50;6.50;;;;;;5048491;28;20140;-81
2023/07/30 10:17:53;;;;;;;1.50;0.90;;;21.60;5.50;;;;;;5039395;28;20438;-80
2023/07/30 10:20:25;;;;;;;1.98;0.98;;;21.60;5.50;;;;;;5050741;28;20123;-81
2023/07/30 10:22:59;;;;;;;1.40;0.90;;;21.40;4.80;;;;;;5044626;28;20059;-81
2023/07/30 10:25:29;;;;;;;1.45;1.00;;;21.30;4.60;;;;;;5062558;28;20117;-80
2023/07/30 10:27:56;;;;;;;1.70;0.90;;;21.20;4.90;;;;;;5042445;28;20094;-80
2023/07/30 10:30:29;;;;;;;1.60;0.90;;;21.00;5.10;;;;;;5054873;28;20572;-80
2023/07/30 10:32:57;;;;;;;1.55;0.95;;;21.00;8.20;;;;;;5051460;28;20045;-81
2023/07/30 10:35:45;;;;;;;0.70;0.65;;;21.00;8.70;;;;;;5063627;28;20053;-81
2023/07/30 10:38:16;;;;;;;2.13;1.00;;;21.00;8.50;;;;;;5045101;28;20052;-81
2023/07/30 10:41:02;;;;;;;1.75;0.77;;;21.00;8.30;;;;;;5062231;28;20060;-82
2023/07/30 10:43:55;;;;;;;1.10;0.60;;;21.10;9.40;;;;;;5052968;28;20101;-81
2023/07/30 10:46:24;;;;;;;1.67;1.00;;;21.00;7.90;;;;;;5058691;28;20125;-81
2023/07/30 10:48:51;;;;;;;2.63;1.20;;;20.80;7.70;;;;;;5061526;28;20448;-81
2023/07/30 10:51:18;;;;;;;1.92;1.02;;;20.70;7.60;;;;;;5054397;28;20057;-81
2023/07/30 10:53:48;;;;;;;1.63;0.93;;;20.60;7.70;;;;;;5032517;28;20425;-81
2023/07/30 10:56:16;;;;;;;3.10;1.00;;;20.60;9.50;;;;;;5042632;28;20483;-81
2023/07/30 10:58:43;;;;;;;2.25;1.20;;;20.70;25.00;;;;;;5026064;28;20481;-80
2023/07/30 11:01:10;;;;;;;1.88;1.23;;;20.80;18.70;;;;;;5031182;28;20054;-80
2023/07/30 11:03:38;;;;;;;1.90;0.90;;;20.80;16.10;;;;;;5055124;28;20143;-80
2023/07/30 11:06:07;;;;;;;2.17;0.90;;;20.80;15.10;;;;;;5048429;28;20433;-81
2023/07/30 11:08:41;;;;;;;1.73;0.75;;;21.00;15.60;;;;;;5047008;28;20136;-81
2023/07/30 11:11:09;;;;;;;3.13;1.08;;;21.20;15.60;;;;;;5044782;28;20465;-81
2023/07/30 11:13:41;;;;;;;1.05;0.90;;;21.30;16.20;;;;;;5038824;28;20053;-81
2023/07/30 11:16:08;;;;;;;0.90;0.63;;;21.50;17.10;;;;;;5045897;28;20589;-81
2023/07/30 11:18:36;;;;;;;1.00;0.68;;;21.40;15.30;;;;;;5025580;28;20056;-81
2023/07/30 11:21:07;;;;;;;1.05;0.60;;;21.40;15.90;;;;;;5034223;28;20532;-80
2023/07/30 11:23:35;;;;;;;0.60;0.57;;;21.40;17.10;;;;;;5042044;28;20580;-78
2023/07/30 11:26:02;;;;;;;0.85;0.75;;;21.50;17.10;;;;;;5043987;28;20049;-82
2023/07/30 11:28:33;;;;;;;1.63;0.80;;;21.50;16.80;;;;;;5031176;28;20056;-83
2023/07/30 11:31:11;;;;;;;1.20;0.80;;;21.30;16.80;;;;;;5047588;28;20054;-82
2023/07/30 11:33:42;;;;;;;1.10;0.73;;;21.20;18.30;;;;;;5049738;28;20040;-82
2023/07/30 11:36:16;;;;;;;0.90;0.60;;;21.10;22.30;;;;;;5047369;28;20056;-81
2023/07/30 11:38:43;;;;;;;1.33;0.88;;;21.00;27.70;;;;;;5033039;28;20488;-80
2023/07/30 11:41:10;;;;;;;3.13;1.27;;;21.00;29.70;;;;;;5023718;28;20057;-80
2023/07/30 11:43:38;;;;;;;1.15;0.80;;;20.90;36.10;;;;;;5024747;28;20045;-80
2023/07/30 11:46:15;;;;;;;1.30;0.80;;;20.90;44.80;;;;;;5023683;28;20535;-81
2023/07/30 11:48:44;;;;;;;1.55;0.70;;;20.80;67.90;;;;;;5034883;28;20156;-80
2023/07/30 11:51:27;;;;;;;0.90;0.77;;;20.70;72.60;;;;;;5021192;28;20045;-81
2023/07/30 11:53:56;;;;;;;1.30;0.80;;;20.60;95.40;;;;;;5035280;28;20037;-79
2023/07/30 11:56:29;;;;;;;1.02;0.70;;;20.50;99.90;;;;;;5028674;28;20071;-80
2023/07/30 11:58:58;;;;;;;0.85;0.60;;;20.40;99.90;;;;;;5032134;28;20048;-80
2023/07/30 12:01:26;;;;;;;1.50;0.90;;;20.30;99.90;;;;;;5015082;28;20072;-81
2023/07/30 12:03:57;;;;;;;1.10;0.73;;;20.20;99.90;;;;;;5042672;28;20064;-80
2023/07/30 12:06:24;;;;;;;1.10;0.60;;;20.00;99.90;;;;;;5039134;28;20056;-81
2023/07/30 12:08:51;;;;;;;1.67;0.80;;;20.00;1.00;;;;;;5037789;28;20052;-80
2023/07/30 12:11:21;;;;;;;0.95;0.73;;;19.90;73.70;;;;;;5057914;28;20056;-81
2023/07/30 12:13:50;;;;;;;1.52;0.93;;;19.90;63.80;;;;;;5037049;28;20102;-80
2023/07/30 12:16:17;;;;;;;1.13;0.85;;;20.00;1.00;;;;;;5046426;28;20135;-80
2023/07/30 12:18:47;;;;;;;0.65;0.55;;;20.20;1.00;;;;;;5040617;28;20071;-80
2023/07/30 12:21:14;;;;;;;0.60;0.60;;;20.30;1.00;;;;;;5050591;28;20137;-80
2023/07/30 12:23:41;;;;;;;1.13;0.70;;;20.20;1.00;;;;;;5039411;28;20738;-80
2023/07/30 12:26:08;;;;;;;1.15;0.60;;;20.30;99.90;;;;;;5054612;28;20045;-80
2023/07/30 12:28:34;;;;;;;0.52;0.40;;;20.30;99.90;;;;;;5062323;28;20531;-80
2023/07/30 12:31:02;;;;;;;0.60;0.52;;;20.30;99.90;;;;;;5066492;28;20044;-80
2023/07/30 12:33:28;;;;;;;0.75;0.60;;;20.40;99.90;;;;;;5061545;28;20044;-80
2023/07/30 12:35:55;;;;;;;0.82;0.63;;;20.50;99.90;;;;;;5039824;28;20056;-80
2023/07/30 12:38:22;;;;;;;0.52;0.38;;;20.50;99.90;;;;;;5056824;28;20419;-80
2023/07/30 12:40:49;;;;;;;0.45;0.45;;;20.60;99.90;;;;;;5049876;28;20247;-80
2023/07/30 12:43:18;;;;;;;0.73;0.55;;;20.70;99.90;;;;;;5063386;28;20664;-80
2023/07/30 12:45:46;;;;;;;0.40;0.40;;;20.70;99.90;;;;;;5062784;28;20054;-80
2023/07/30 12:48:13;;;;;;;0.57;0.50;;;20.70;99.90;;;;;;5067147;28;20059;-79
2023/07/30 12:50:40;;;;;;;0.85;0.43;;;20.60;99.90;;;;;;5038833;28;20041;-81
2023/07/30 12:53:07;;;;;;;0.70;0.60;;;20.50;1.00;;;;;;5052570;28;20055;-81